createdAt,value
2019-02-15T00:02:12.967Z,6.53
2019-02-15T00:04:41.739Z,6.17
2019-02-15T00:07:10.573Z,6.37
2019-02-15T00:09:39.313Z,5.67
2019-02-15T00:12:08.057Z,5.90
2019-02-15T00:14:44.925Z,5.60
2019-02-15T00:17:15.457Z,6.40
2019-02-15T00:19:47.922Z,6.43
2019-02-15T00:22:16.673Z,5.90
2019-02-15T00:24:45.424Z,6.23
2019-02-15T00:27:14.216Z,6.70
2019-02-15T00:29:43.046Z,6.83
2019-02-15T00:32:11.861Z,7.87
2019-02-15T00:34:40.788Z,6.37
2019-02-15T00:37:09.563Z,7.03
2019-02-15T00:39:38.340Z,7.07
2019-02-15T00:42:07.170Z,7.37
2019-02-15T00:44:35.949Z,6.47
2019-02-15T00:47:32.973Z,6.67
2019-02-15T00:50:32.952Z,6.80
2019-02-15T00:53:19.431Z,6.33
2019-02-15T00:55:57.620Z,7.23
2019-02-15T00:58:42.675Z,6.77
2019-02-15T01:01:18.783Z,6.67
2019-02-15T01:03:51.873Z,6.00
2019-02-15T01:06:44.725Z,6.87
2019-02-15T01:09:47.642Z,6.80
2019-02-15T01:12:33.531Z,6.33
2019-02-15T01:15:02.311Z,6.80
2019-02-15T01:17:31.102Z,6.43
2019-02-15T01:19:59.865Z,6.03
2019-02-15T01:22:28.617Z,6.73
2019-02-15T01:24:57.363Z,6.17
2019-02-15T01:27:45.181Z,7.77
2019-02-15T01:30:39.220Z,6.37
2019-02-15T01:33:21.925Z,6.37
2019-02-15T01:35:57.301Z,6.63
2019-02-15T01:38:39.780Z,6.87
2019-02-15T01:41:21.427Z,6.50
2019-02-15T01:43:55.138Z,7.17
2019-02-15T01:46:48.953Z,6.77
2019-02-15T01:49:17.903Z,6.37
2019-02-15T01:51:46.750Z,6.70
2019-02-15T01:54:15.579Z,7.27
2019-02-15T01:56:44.319Z,6.43
2019-02-15T01:59:13.132Z,6.33
2019-02-15T02:01:41.870Z,6.87
2019-02-15T02:04:11.115Z,6.77
2019-02-15T02:06:39.944Z,6.83
2019-02-15T02:09:08.638Z,7.20
2019-02-15T02:11:37.595Z,6.70
2019-02-15T02:14:06.367Z,6.33
2019-02-15T02:16:35.070Z,6.40
2019-02-15T02:19:03.909Z,6.33
2019-02-15T02:21:32.656Z,6.50
2019-02-15T02:24:01.346Z,7.40
2019-02-15T02:26:30.173Z,6.63
2019-02-15T02:28:59.027Z,6.90
2019-02-15T02:31:27.773Z,6.50
2019-02-15T02:33:56.496Z,6.50
2019-02-15T02:36:46.067Z,6.97
2019-02-15T02:39:14.843Z,6.83
2019-02-15T02:41:43.564Z,7.53
2019-02-15T02:44:12.200Z,6.50
2019-02-15T02:46:41.036Z,5.70
2019-02-15T02:49:09.777Z,6.77
2019-02-15T02:51:38.568Z,6.90
2019-02-15T02:54:07.419Z,6.83
2019-02-15T02:56:36.132Z,6.73
2019-02-15T02:59:04.898Z,6.23
2019-02-15T03:01:33.663Z,6.67
2019-02-15T03:04:02.263Z,6.40
2019-02-15T03:06:31.000Z,5.83
2019-02-15T03:08:59.789Z,6.63
2019-02-15T03:11:28.552Z,6.77
2019-02-15T03:13:57.286Z,7.27
2019-02-15T03:16:26.083Z,6.87
2019-02-15T03:18:54.916Z,7.00
2019-02-15T03:21:23.607Z,7.70
2019-02-15T03:23:52.830Z,7.67
2019-02-15T03:26:21.623Z,7.30
2019-02-15T03:28:50.450Z,6.47
2019-02-15T03:31:19.229Z,6.93
2019-02-15T03:33:47.996Z,6.50
2019-02-15T03:36:26.722Z,6.30
2019-02-15T03:39:03.475Z,6.90
2019-02-15T03:41:33.816Z,6.77
2019-02-15T03:44:02.580Z,6.37
2019-02-15T03:46:31.326Z,6.87
2019-02-15T03:49:00.076Z,6.67
2019-02-15T03:51:28.889Z,6.43
2019-02-15T03:53:57.641Z,6.30
2019-02-15T03:56:26.419Z,6.80
2019-02-15T03:58:55.154Z,6.23
2019-02-15T04:01:23.964Z,6.80
2019-02-15T04:03:54.754Z,7.47
2019-02-15T04:06:23.531Z,6.93
2019-02-15T04:08:52.290Z,6.50
2019-02-15T04:11:21.021Z,6.97
2019-02-15T04:13:49.803Z,7.47
2019-02-15T04:16:18.557Z,6.87
2019-02-15T04:18:47.419Z,6.67
2019-02-15T04:21:17.290Z,6.80
2019-02-15T04:23:46.025Z,6.17
2019-02-15T04:26:14.810Z,6.60
2019-02-15T04:28:43.580Z,6.47
2019-02-15T04:31:12.370Z,6.83
2019-02-15T04:33:41.186Z,6.17
2019-02-15T04:36:09.866Z,7.33
2019-02-15T04:38:38.607Z,6.37
2019-02-15T04:41:07.356Z,6.80
2019-02-15T04:43:36.099Z,6.30
2019-02-15T04:46:04.872Z,6.40
2019-02-15T04:48:33.640Z,7.27
2019-02-15T04:51:02.417Z,7.53
2019-02-15T04:53:31.129Z,7.30
2019-02-15T04:55:59.811Z,7.20
2019-02-15T04:58:28.625Z,7.33
2019-02-15T05:01:16.229Z,7.67
2019-02-15T05:03:44.828Z,7.87
2019-02-15T05:06:13.298Z,7.47
2019-02-15T05:08:41.885Z,6.87
2019-02-15T05:11:10.396Z,6.97
2019-02-15T05:13:38.848Z,6.93
2019-02-15T05:16:07.361Z,7.67
2019-02-15T05:18:35.880Z,7.13
2019-02-15T05:21:04.448Z,7.87
2019-02-15T05:23:32.932Z,7.40
2019-02-15T05:26:01.487Z,7.13
2019-02-15T05:28:30.051Z,7.70
2019-02-15T05:30:58.564Z,8.13
2019-02-15T05:33:27.058Z,8.07
2019-02-15T05:35:55.621Z,7.50
2019-02-15T05:38:24.165Z,7.90
2019-02-15T05:40:52.683Z,7.97
2019-02-15T05:43:21.236Z,7.53
2019-02-15T05:45:49.766Z,8.13
2019-02-15T05:48:20.287Z,8.37
2019-02-15T05:50:51.855Z,7.70
2019-02-15T05:53:20.296Z,7.70
2019-02-15T05:55:49.963Z,8.33
2019-02-15T05:58:18.516Z,9.83
2019-02-15T06:00:46.968Z,9.67
2019-02-15T06:03:15.480Z,8.73
2019-02-15T06:05:44.069Z,9.57
2019-02-15T06:08:12.724Z,8.50
2019-02-15T06:10:41.244Z,10.80
2019-02-15T06:13:09.832Z,11.63
2019-02-15T06:15:38.508Z,11.03
2019-02-15T06:18:07.051Z,11.37
2019-02-15T06:20:37.275Z,10.90
2019-02-15T06:23:05.780Z,10.80
2019-02-15T06:25:36.498Z,10.83
2019-02-15T06:28:05.004Z,10.43
2019-02-15T06:30:33.641Z,9.50
2019-02-15T06:33:04.245Z,12.35
2019-02-15T06:35:33.128Z,10.37
2019-02-15T06:38:01.904Z,11.90
2019-02-15T06:40:30.397Z,18.17
2019-02-15T06:42:58.824Z,15.47
2019-02-15T06:45:27.703Z,14.80
2019-02-15T06:47:56.184Z,14.33
2019-02-15T06:50:24.688Z,13.33
2019-02-15T06:52:53.244Z,12.73
2019-02-15T06:55:21.797Z,12.07
2019-02-15T06:57:50.291Z,10.27
2019-02-15T07:00:28.812Z,9.53
2019-02-15T07:03:15.134Z,9.63
2019-02-15T07:05:43.640Z,8.73
2019-02-15T07:08:12.140Z,9.17
2019-02-15T07:10:40.728Z,9.07
2019-02-15T07:13:09.176Z,8.57
2019-02-15T07:15:37.675Z,8.50
2019-02-15T07:18:06.160Z,9.20
2019-02-15T07:20:46.542Z,9.80
2019-02-15T07:23:15.046Z,9.47
2019-02-15T07:25:43.476Z,8.63
2019-02-15T07:28:35.683Z,9.70
2019-02-15T07:31:04.176Z,9.73
2019-02-15T07:33:32.601Z,9.03
2019-02-15T07:36:01.028Z,8.27
2019-02-15T07:38:29.456Z,7.20
2019-02-15T07:40:57.980Z,8.20
2019-02-15T07:43:26.537Z,7.40
2019-02-15T07:45:55.039Z,7.37
2019-02-15T07:48:23.546Z,7.13
2019-02-15T07:50:52.077Z,8.53
2019-02-15T07:53:20.509Z,7.80
2019-02-15T07:55:49.004Z,7.60
2019-02-15T07:58:17.554Z,8.50
2019-02-15T08:00:46.052Z,7.87
2019-02-15T08:03:14.548Z,7.43
2019-02-15T08:05:43.037Z,6.70
2019-02-15T08:08:11.536Z,7.10
2019-02-15T08:10:40.024Z,5.97
2019-02-15T08:13:08.454Z,6.80
2019-02-15T08:15:37.040Z,6.47
2019-02-15T08:18:05.524Z,5.77
2019-02-15T08:20:34.080Z,6.40
2019-02-15T08:23:02.524Z,5.73
2019-02-15T08:25:30.975Z,6.23
2019-02-15T08:27:59.500Z,6.30
2019-02-15T08:30:28.025Z,6.53
2019-02-15T08:32:56.459Z,6.00
2019-02-15T08:35:24.976Z,5.87
2019-02-15T08:37:53.483Z,6.13
2019-02-15T08:40:21.938Z,6.33
2019-02-15T08:42:50.420Z,5.90
2019-02-15T08:45:18.957Z,5.93
2019-02-15T08:47:47.446Z,6.33
2019-02-15T08:50:15.924Z,5.53
2019-02-15T08:52:44.443Z,5.90
2019-02-15T08:55:12.936Z,5.30
2019-02-15T08:57:41.367Z,4.53
2019-02-15T09:00:10.283Z,4.73
2019-02-15T09:02:38.820Z,4.07
2019-02-15T09:05:08.230Z,4.63
2019-02-15T09:07:36.676Z,4.30
2019-02-15T09:10:05.925Z,3.80
2019-02-15T09:12:34.360Z,4.37
2019-02-15T09:15:02.812Z,4.70
2019-02-15T09:17:31.335Z,4.47
2019-02-15T09:19:59.785Z,4.40
2019-02-15T09:22:28.328Z,4.30
2019-02-15T09:24:56.768Z,4.87
2019-02-15T09:27:41.599Z,4.77
2019-02-15T09:30:10.910Z,5.03
2019-02-15T09:32:39.404Z,5.03
2019-02-15T09:35:08.261Z,4.83
2019-02-15T09:37:36.707Z,5.07
2019-02-15T09:40:05.452Z,4.77
2019-02-15T09:42:33.922Z,5.13
2019-02-15T09:45:02.335Z,5.53
2019-02-15T09:47:30.833Z,4.40
2019-02-15T09:49:59.357Z,5.30
2019-02-15T09:52:29.317Z,4.73
2019-02-15T09:54:57.818Z,5.33
2019-02-15T09:57:26.304Z,4.53
2019-02-15T09:59:54.803Z,4.93
2019-02-15T10:02:23.228Z,4.90
2019-02-15T10:04:51.720Z,4.43
2019-02-15T10:07:20.196Z,5.20
2019-02-15T10:09:48.688Z,4.50
2019-02-15T10:12:17.204Z,4.70
2019-02-15T10:14:45.702Z,4.97
2019-02-15T10:17:14.228Z,5.10
2019-02-15T10:19:42.792Z,4.80
2019-02-15T10:22:11.614Z,4.90
2019-02-15T10:24:40.165Z,5.03
2019-02-15T10:27:08.748Z,5.00
2019-02-15T10:29:37.164Z,4.63
2019-02-15T10:32:05.744Z,4.87
2019-02-15T10:34:34.404Z,4.60
2019-02-15T10:37:03.096Z,4.87
2019-02-15T10:39:31.508Z,4.73
2019-02-15T10:42:00.010Z,4.20
2019-02-15T10:44:28.517Z,4.87
2019-02-15T10:46:57.035Z,4.30
2019-02-15T10:49:25.513Z,4.50
2019-02-15T10:51:53.924Z,4.67
2019-02-15T10:54:22.542Z,4.03
2019-02-15T10:56:51.004Z,3.83
2019-02-15T10:59:19.483Z,2.73
2019-02-15T11:01:48.127Z,3.60
2019-02-15T11:04:16.672Z,2.93
2019-02-15T11:06:45.353Z,3.47
2019-02-15T11:09:13.901Z,3.00
2019-02-15T11:11:42.426Z,2.93
2019-02-15T11:14:10.950Z,2.37
2019-02-15T11:16:46.996Z,2.27
2019-02-15T11:19:09.652Z,2.17
2019-02-15T11:21:38.080Z,1.87
2019-02-15T11:24:06.600Z,1.73
2019-02-15T11:26:35.323Z,2.03
2019-02-15T11:29:04.361Z,2.30
2019-02-15T11:31:32.923Z,1.53
2019-02-15T11:34:01.519Z,1.57
2019-02-15T11:36:30.036Z,1.77
2019-02-15T11:38:58.524Z,2.80
2019-02-15T11:41:28.008Z,1.60
2019-02-15T11:43:56.479Z,1.60
2019-02-15T11:46:25.057Z,1.63
2019-02-15T11:48:53.707Z,1.80
2019-02-15T11:51:22.381Z,1.50
2019-02-15T11:53:50.882Z,1.73
2019-02-15T11:56:19.408Z,1.43
2019-02-15T11:58:47.977Z,1.73
2019-02-15T12:01:16.416Z,1.50
2019-02-15T12:03:45.063Z,1.30
2019-02-15T12:06:13.578Z,1.40
2019-02-15T12:08:42.081Z,1.67
2019-02-15T12:11:11.799Z,1.70
2019-02-15T12:13:46.185Z,1.13
2019-02-15T12:16:15.816Z,1.30
2019-02-15T12:18:47.533Z,1.33
2019-02-15T12:21:16.095Z,1.20
2019-02-15T12:23:44.987Z,1.27
2019-02-15T12:26:13.657Z,1.30
2019-02-15T12:28:42.285Z,1.30
2019-02-15T12:31:10.875Z,1.10
2019-02-15T12:33:39.395Z,1.37
2019-02-15T12:36:07.851Z,1.00
2019-02-15T12:38:36.426Z,1.10
2019-02-15T12:41:04.988Z,1.20
2019-02-15T12:43:33.538Z,1.10
2019-02-15T12:46:04.540Z,1.20
2019-02-15T12:48:38.349Z,1.20
2019-02-15T12:51:06.813Z,1.30
2019-02-15T12:53:35.334Z,1.10
2019-02-15T12:56:03.841Z,1.23
2019-02-15T12:58:32.314Z,1.07
2019-02-15T13:01:00.804Z,0.90
2019-02-15T13:03:29.265Z,1.10
2019-02-15T13:05:57.802Z,1.07
2019-02-15T13:08:26.297Z,0.90
2019-02-15T13:10:54.968Z,0.90
2019-02-15T13:13:23.585Z,1.17
2019-02-15T13:15:52.112Z,0.90
2019-02-15T13:18:20.654Z,0.80
2019-02-15T13:20:49.216Z,0.97
2019-02-15T13:23:17.755Z,0.77
2019-02-15T13:25:46.240Z,0.80
2019-02-15T13:28:14.677Z,0.87
2019-02-15T13:30:43.180Z,0.77
2019-02-15T13:33:11.644Z,0.73
2019-02-15T13:35:40.105Z,0.63
2019-02-15T13:38:08.538Z,0.80
2019-02-15T13:40:37.134Z,1.00
2019-02-15T13:43:05.691Z,1.23
2019-02-15T13:45:34.124Z,0.73
2019-02-15T13:48:03.176Z,1.00
2019-02-15T13:50:31.675Z,1.30
2019-02-15T13:53:00.201Z,0.90
2019-02-15T13:55:28.697Z,1.10
2019-02-15T13:57:57.429Z,1.00
2019-02-15T14:00:25.965Z,0.90
2019-02-15T14:02:54.475Z,0.97
2019-02-15T14:05:23.046Z,1.23
2019-02-15T14:07:51.476Z,1.37
2019-02-15T14:10:20.039Z,1.00
2019-02-15T14:12:48.599Z,1.00
2019-02-15T14:15:17.145Z,1.20
2019-02-15T14:17:48.441Z,1.20
2019-02-15T14:20:15.929Z,1.00
2019-02-15T14:22:44.658Z,1.20
2019-02-15T14:25:13.212Z,1.33
2019-02-15T14:27:41.809Z,1.07
2019-02-15T14:30:10.738Z,1.00
2019-02-15T14:32:39.259Z,1.00
2019-02-15T14:35:08.037Z,0.90
2019-02-15T14:37:36.574Z,1.10
2019-02-15T14:40:05.186Z,1.20
2019-02-15T14:42:33.756Z,1.00
2019-02-15T14:45:02.300Z,0.90
2019-02-15T14:47:30.857Z,1.17
2019-02-15T14:49:59.450Z,1.10
2019-02-15T14:52:27.971Z,1.00
2019-02-15T14:54:56.433Z,0.83
2019-02-15T14:57:31.822Z,1.13
2019-02-15T15:00:00.536Z,1.17
2019-02-15T15:02:29.214Z,0.90
2019-02-15T15:04:57.750Z,0.80
2019-02-15T15:07:26.246Z,1.17
2019-02-15T15:09:54.738Z,0.80
2019-02-15T15:12:23.461Z,0.83
2019-02-15T15:14:51.968Z,1.40
2019-02-15T15:17:20.467Z,0.80
2019-02-15T15:19:49.030Z,1.10
2019-02-15T15:22:17.531Z,0.80
2019-02-15T15:24:47.105Z,1.20
2019-02-15T15:27:15.593Z,1.00
2019-02-15T15:29:44.053Z,1.10
2019-02-15T15:32:12.583Z,0.80
2019-02-15T15:34:41.343Z,1.13
2019-02-15T15:37:16.210Z,1.00
2019-02-15T15:39:40.973Z,0.80
2019-02-15T15:42:09.534Z,1.10
2019-02-15T15:44:38.047Z,1.10
2019-02-15T15:47:07.140Z,1.17
2019-02-15T15:49:35.677Z,1.10
2019-02-15T15:52:04.798Z,1.27
2019-02-15T15:54:33.359Z,0.97
2019-02-15T15:57:02.010Z,1.63
2019-02-15T15:59:30.506Z,1.03
2019-02-15T16:01:58.950Z,1.10
2019-02-15T16:04:27.448Z,1.40
2019-02-15T16:06:55.969Z,1.23
2019-02-15T16:09:24.502Z,1.43
2019-02-15T16:11:54.348Z,1.70
2019-02-15T16:14:22.857Z,1.53
2019-02-15T16:16:51.375Z,1.33
2019-02-15T16:19:20.093Z,1.37
2019-02-15T16:21:48.636Z,1.33
2019-02-15T16:24:17.251Z,1.50
2019-02-15T16:26:45.830Z,1.43
2019-02-15T16:29:14.359Z,1.53
2019-02-15T16:31:42.961Z,1.50
2019-02-15T16:34:11.606Z,1.40
2019-02-15T16:36:40.188Z,1.70
2019-02-15T16:39:08.864Z,1.40
2019-02-15T16:41:37.496Z,1.67
2019-02-15T16:44:06.104Z,1.43
2019-02-15T16:46:34.613Z,1.60
2019-02-15T16:49:03.225Z,1.57
2019-02-15T16:51:32.139Z,1.53
2019-02-15T16:54:00.967Z,1.50
2019-02-15T16:56:29.612Z,1.73
2019-02-15T16:58:58.216Z,2.03
2019-02-15T17:01:26.853Z,1.97
2019-02-15T17:03:55.440Z,1.63
2019-02-15T17:06:23.966Z,2.03
2019-02-15T17:08:52.524Z,1.77
2019-02-15T17:11:21.112Z,1.83
2019-02-15T17:13:49.555Z,2.52
2019-02-15T17:16:21.396Z,2.77
2019-02-15T17:18:52.201Z,2.87
2019-02-15T17:21:19.897Z,2.27
2019-02-15T17:23:48.248Z,2.50
2019-02-15T17:26:16.723Z,2.43
2019-02-15T17:28:45.176Z,2.63
2019-02-15T17:31:13.556Z,2.87
2019-02-15T17:33:42.028Z,2.92
2019-02-15T17:36:10.396Z,2.40
2019-02-15T17:38:38.759Z,2.17
2019-02-15T17:41:07.278Z,2.83
2019-02-15T17:43:35.776Z,2.77
2019-02-15T17:46:04.324Z,2.60
2019-02-15T17:48:32.919Z,3.07
2019-02-15T17:51:01.348Z,2.95
2019-02-15T17:53:29.789Z,2.67
2019-02-15T17:55:58.284Z,2.77
2019-02-15T17:58:26.716Z,3.03
2019-02-15T18:00:55.253Z,2.40
2019-02-15T18:03:23.771Z,2.20
2019-02-15T18:05:52.135Z,2.97
2019-02-15T18:08:20.585Z,3.70
2019-02-15T18:10:48.993Z,4.45
2019-02-15T18:13:17.372Z,3.27
2019-02-15T18:15:45.934Z,3.80
2019-02-15T18:18:14.339Z,5.90
2019-02-15T18:20:42.745Z,4.47
2019-02-15T18:23:11.132Z,9.18
2019-02-15T18:25:39.602Z,8.23
2019-02-15T18:28:08.030Z,7.53
2019-02-15T18:30:36.495Z,7.73
2019-02-15T18:33:04.960Z,6.03
2019-02-15T18:35:33.480Z,5.70
2019-02-15T18:38:01.911Z,5.70
2019-02-15T18:40:30.509Z,6.57
2019-02-15T18:42:58.987Z,11.13
2019-02-15T18:45:27.487Z,13.80
2019-02-15T18:47:55.995Z,10.20
2019-02-15T18:50:24.384Z,7.73
2019-02-15T18:52:52.832Z,7.20
2019-02-15T18:55:21.309Z,7.00
2019-02-15T18:57:49.754Z,5.97
2019-02-15T19:00:18.255Z,6.50
2019-02-15T19:02:46.778Z,7.50
2019-02-15T19:05:15.249Z,6.63
2019-02-15T19:07:43.770Z,6.03
2019-02-15T19:10:14.021Z,5.17
2019-02-15T19:12:42.547Z,3.90
2019-02-15T19:15:12.021Z,3.70
2019-02-15T19:17:40.637Z,4.17
2019-02-15T19:20:09.585Z,4.30
2019-02-15T19:22:38.047Z,4.10
2019-02-15T19:25:07.337Z,3.80
2019-02-15T19:27:35.685Z,4.63
2019-02-15T19:30:06.009Z,4.70
2019-02-15T19:32:34.660Z,3.87
2019-02-15T19:35:03.166Z,4.60
2019-02-15T19:37:31.783Z,4.13
2019-02-15T19:40:00.327Z,4.93
2019-02-15T19:42:28.742Z,4.77
2019-02-15T19:44:57.202Z,4.57
2019-02-15T19:47:25.700Z,4.77
2019-02-15T19:49:54.157Z,5.10
2019-02-15T19:52:22.681Z,4.00
2019-02-15T19:54:51.229Z,4.17
2019-02-15T19:57:19.609Z,4.23
2019-02-15T19:59:53.795Z,3.97
2019-02-15T20:02:18.388Z,4.53
2019-02-15T20:04:48.891Z,3.93
2019-02-15T20:07:17.473Z,4.20
2019-02-15T20:09:46.113Z,4.00
2019-02-15T20:12:14.629Z,4.50
2019-02-15T20:14:43.052Z,3.80
2019-02-15T20:17:11.504Z,4.00
2019-02-15T20:19:48.213Z,4.30
2019-02-15T20:22:10.141Z,3.23
2019-02-15T20:24:38.664Z,3.80
2019-02-15T20:27:07.158Z,3.70
2019-02-15T20:29:35.664Z,3.87
2019-02-15T20:32:04.286Z,4.03
2019-02-15T20:34:32.804Z,3.77
2019-02-15T20:37:01.467Z,3.57
2019-02-15T20:42:52.254Z,3.40
2019-02-15T20:45:21.106Z,4.10
2019-02-15T20:47:49.697Z,3.87
2019-02-15T20:50:18.456Z,3.50
2019-02-15T20:52:47.108Z,3.43
2019-02-15T20:55:15.676Z,3.23
2019-02-15T20:57:44.232Z,3.47
2019-02-15T21:00:14.487Z,3.97
2019-02-15T21:02:42.936Z,3.50
2019-02-15T21:05:11.648Z,3.30
2019-02-15T21:07:40.320Z,4.28
2019-02-15T21:10:09.327Z,3.83
2019-02-15T21:12:39.536Z,3.60
2019-02-15T21:15:08.184Z,3.20
2019-02-15T21:17:39.696Z,3.80
2019-02-15T21:20:09.080Z,3.63
2019-02-15T21:22:37.601Z,3.73
2019-02-15T21:25:06.566Z,3.30
2019-02-15T21:27:35.128Z,3.57
2019-02-15T21:30:03.761Z,3.17
2019-02-15T21:32:32.408Z,3.53
2019-02-15T21:35:00.881Z,4.00
2019-02-15T21:37:30.485Z,3.37
2019-02-15T21:39:58.879Z,3.87
2019-02-15T21:42:28.390Z,3.50
2019-02-15T21:44:56.861Z,4.10
2019-02-15T21:47:25.570Z,3.63
2019-02-15T21:49:54.354Z,4.03
2019-02-15T21:52:22.838Z,4.00
2019-02-15T21:54:51.453Z,3.40
2019-02-15T21:57:19.844Z,4.07
2019-02-15T21:59:48.281Z,3.97
2019-02-15T22:02:16.788Z,3.90
2019-02-15T22:04:45.261Z,3.50
2019-02-15T22:07:13.937Z,4.67
2019-02-15T22:09:42.461Z,4.13
2019-02-15T22:12:10.845Z,4.00
2019-02-15T22:14:39.384Z,4.30
2019-02-15T22:17:07.844Z,4.43
2019-02-15T22:19:36.252Z,4.57
2019-02-15T22:22:08.227Z,3.97
2019-02-15T22:24:36.713Z,4.40
2019-02-15T22:27:05.179Z,5.20
2019-02-15T22:29:33.674Z,4.90
2019-02-15T22:32:02.434Z,4.70
2019-02-15T22:34:30.906Z,4.97
2019-02-15T22:36:59.388Z,4.57
2019-02-15T22:39:27.882Z,4.80
2019-02-15T22:41:56.286Z,4.70
2019-02-15T22:44:24.783Z,4.87
2019-02-15T22:46:53.247Z,5.27
2019-02-15T22:49:21.920Z,5.10
2019-02-15T22:51:50.387Z,5.10
2019-02-15T22:54:18.840Z,5.30
2019-02-15T22:56:47.287Z,5.50
2019-02-15T22:59:15.832Z,5.13
2019-02-15T23:01:44.487Z,5.07
2019-02-15T23:04:12.923Z,5.87
2019-02-15T23:06:41.733Z,5.87
2019-02-15T23:09:21.335Z,5.93
2019-02-15T23:11:49.863Z,4.77
2019-02-15T23:14:18.340Z,4.93
2019-02-15T23:16:46.803Z,5.23
2019-02-15T23:19:15.381Z,4.70
2019-02-15T23:21:43.786Z,5.27
2019-02-15T23:24:12.200Z,4.77
2019-02-15T23:26:41.681Z,5.67
2019-02-15T23:29:10.173Z,5.13
2019-02-15T23:31:38.571Z,5.27
2019-02-15T23:34:06.957Z,5.00
2019-02-15T23:36:35.443Z,5.00
2019-02-15T23:39:04.196Z,5.37
2019-02-15T23:41:32.544Z,4.70
2019-02-15T23:44:00.964Z,4.90
2019-02-15T23:46:29.400Z,4.77
2019-02-15T23:48:57.757Z,4.30
2019-02-15T23:51:26.144Z,5.00
2019-02-15T23:53:54.586Z,4.47
2019-02-15T23:56:22.972Z,5.00
2019-02-15T23:58:52.087Z,5.23
